createdAt,value
2019-05-29T00:00:54.311Z,12.44
2019-05-29T00:01:54.313Z,12.45
2019-05-29T00:02:54.281Z,12.39
2019-05-29T00:03:54.271Z,12.42
2019-05-29T00:04:54.251Z,12.38
2019-05-29T00:05:54.244Z,12.39
2019-05-29T00:06:54.229Z,12.38
2019-05-29T00:07:54.280Z,12.37
2019-05-29T00:08:54.210Z,12.39
2019-05-29T00:09:54.222Z,12.33
2019-05-29T00:10:54.184Z,12.27
2019-05-29T00:11:54.174Z,12.34
2019-05-29T00:12:54.169Z,12.31
2019-05-29T00:13:54.245Z,12.26
2019-05-29T00:14:54.145Z,12.23
2019-05-29T00:15:54.133Z,12.27
2019-05-29T00:16:54.116Z,12.39
2019-05-29T00:17:54.129Z,12.33
2019-05-29T00:18:55.190Z,12.33
2019-05-29T00:19:54.161Z,12.19
2019-05-29T00:20:54.090Z,12.21
2019-05-29T00:21:54.061Z,12.20
2019-05-29T00:22:54.051Z,12.24
2019-05-29T00:23:54.043Z,12.29
2019-05-29T00:24:54.031Z,12.26
2019-05-29T00:25:54.106Z,12.37
2019-05-29T00:26:54.010Z,12.31
2019-05-29T00:27:53.993Z,12.27
2019-05-29T00:28:53.983Z,12.33
2019-05-29T00:29:54.064Z,12.30
2019-05-29T00:30:53.965Z,12.39
2019-05-29T00:31:53.952Z,12.19
2019-05-29T00:32:53.938Z,12.29
2019-05-29T00:33:53.929Z,12.27
2019-05-29T00:34:53.964Z,12.21
2019-05-29T00:35:53.904Z,12.27
2019-05-29T00:36:53.898Z,12.21
2019-05-29T00:37:53.883Z,12.20
2019-05-29T00:38:53.892Z,12.16
2019-05-29T00:39:53.865Z,12.27
2019-05-29T00:40:53.963Z,12.26
2019-05-29T00:41:53.840Z,12.21
2019-05-29T00:42:53.834Z,12.27
2019-05-29T00:43:53.823Z,12.26
2019-05-29T00:44:53.810Z,12.21
2019-05-29T00:45:53.821Z,12.23
2019-05-29T00:46:53.787Z,12.16
2019-05-29T00:47:53.769Z,12.21
2019-05-29T00:48:53.762Z,12.26
2019-05-29T00:49:53.751Z,12.19
2019-05-29T00:50:53.762Z,12.15
2019-05-29T00:51:53.723Z,12.33
2019-05-29T00:52:53.712Z,12.21
2019-05-29T00:53:53.702Z,12.16
2019-05-29T00:54:53.691Z,12.24
2019-05-29T00:55:53.718Z,12.19
2019-05-29T00:56:53.709Z,12.15
2019-05-29T00:57:53.657Z,12.21
2019-05-29T00:58:53.741Z,12.09
2019-05-29T00:59:53.632Z,12.12
2019-05-29T01:00:53.637Z,12.09
2019-05-29T01:01:53.636Z,12.08
2019-05-29T01:02:53.604Z,12.11
2019-05-29T01:03:53.592Z,12.09
2019-05-29T01:04:53.695Z,12.09
2019-05-29T01:05:53.571Z,12.15
2019-05-29T01:06:53.562Z,12.09
2019-05-29T01:07:53.543Z,11.97
2019-05-29T01:08:53.624Z,11.97
2019-05-29T01:09:53.534Z,12.06
2019-05-29T01:10:53.509Z,12.02
2019-05-29T01:11:53.504Z,12.08
2019-05-29T01:12:53.605Z,12.05
2019-05-29T01:13:53.482Z,12.08
2019-05-29T01:14:53.465Z,11.89
2019-05-29T01:15:53.455Z,12.02
2019-05-29T01:16:53.447Z,11.87
2019-05-29T01:17:53.430Z,11.97
2019-05-29T01:18:53.512Z,11.89
2019-05-29T01:19:53.491Z,11.85
2019-05-29T01:20:53.403Z,11.83
2019-05-29T01:21:53.386Z,11.82
2019-05-29T01:22:53.384Z,11.78
2019-05-29T01:23:53.453Z,11.80
2019-05-29T01:24:53.410Z,11.75
2019-05-29T01:25:53.434Z,11.70
2019-05-29T01:26:53.334Z,11.72
2019-05-29T01:27:53.323Z,11.70
2019-05-29T01:28:53.413Z,11.72
2019-05-29T01:29:53.300Z,11.62
2019-05-29T01:30:53.295Z,11.53
2019-05-29T01:31:53.275Z,11.78
2019-05-29T01:32:53.261Z,11.53
2019-05-29T01:33:53.261Z,11.62
2019-05-29T01:34:53.331Z,11.61
2019-05-29T01:35:53.232Z,11.52
2019-05-29T01:36:53.223Z,11.56
2019-05-29T01:37:53.206Z,11.72
2019-05-29T01:38:53.209Z,11.57
2019-05-29T01:39:53.292Z,11.53
2019-05-29T01:40:53.174Z,11.56
2019-05-29T01:41:53.167Z,11.54
2019-05-29T01:42:53.162Z,11.56
2019-05-29T01:43:53.144Z,11.62
2019-05-29T01:45:06.695Z,11.53
2019-05-29T01:45:54.212Z,11.46
2019-05-29T01:46:53.109Z,11.46
2019-05-29T01:47:53.124Z,11.47
2019-05-29T01:48:53.086Z,11.39
2019-05-29T01:49:53.077Z,11.61
2019-05-29T01:50:53.098Z,11.53
2019-05-29T01:51:53.060Z,11.57
2019-05-29T01:52:53.044Z,11.39
2019-05-29T01:53:53.033Z,11.43
2019-05-29T01:54:53.019Z,11.39
2019-05-29T01:55:53.099Z,11.44
2019-05-29T01:56:52.996Z,11.43
2019-05-29T01:57:52.989Z,11.54
2019-05-29T01:58:53.017Z,11.41
2019-05-29T01:59:52.968Z,11.41
2019-05-29T02:00:52.953Z,11.49
2019-05-29T02:01:52.977Z,11.32
2019-05-29T02:02:52.930Z,11.47
2019-05-29T02:03:52.952Z,11.41
2019-05-29T02:04:52.913Z,11.46
2019-05-29T02:05:52.937Z,11.41
2019-05-29T02:06:52.925Z,11.36
2019-05-29T02:07:52.918Z,11.35
2019-05-29T02:08:52.868Z,11.47
2019-05-29T02:09:52.867Z,11.46
2019-05-29T02:10:52.841Z,11.46
2019-05-29T02:11:52.830Z,11.41
2019-05-29T02:12:52.924Z,11.35
2019-05-29T02:13:52.813Z,11.38
2019-05-29T02:14:52.804Z,11.36
2019-05-29T02:15:52.795Z,11.49
2019-05-29T02:16:52.784Z,11.34
2019-05-29T02:17:52.775Z,11.44
2019-05-29T02:18:52.850Z,11.44
2019-05-29T02:19:52.744Z,11.44
2019-05-29T02:20:52.734Z,11.47
2019-05-29T02:21:52.731Z,11.44
2019-05-29T02:22:52.712Z,11.57
2019-05-29T02:23:52.794Z,11.62
2019-05-29T02:24:52.693Z,11.62
2019-05-29T02:25:52.682Z,11.52
2019-05-29T02:26:52.709Z,11.56
2019-05-29T02:27:52.659Z,11.61
2019-05-29T02:28:52.739Z,11.56
2019-05-29T02:29:52.637Z,11.54
2019-05-29T02:30:52.629Z,11.70
2019-05-29T02:31:52.625Z,11.64
2019-05-29T02:32:52.608Z,11.52
2019-05-29T02:33:52.682Z,11.53
2019-05-29T02:34:52.677Z,11.72
2019-05-29T02:35:52.570Z,11.52
2019-05-29T02:36:52.567Z,11.56
2019-05-29T02:37:52.546Z,11.54
2019-05-29T02:38:52.542Z,11.59
2019-05-29T02:39:52.531Z,11.46
2019-05-29T02:40:52.635Z,11.61
2019-05-29T02:41:52.506Z,11.46
2019-05-29T02:42:52.498Z,11.50
2019-05-29T02:43:52.486Z,11.56
2019-05-29T02:44:52.563Z,11.54
2019-05-29T02:45:54.380Z,11.44
2019-05-29T02:46:52.449Z,11.49
2019-05-29T02:47:52.436Z,11.49
2019-05-29T02:48:52.429Z,11.43
2019-05-29T02:49:52.506Z,11.41
2019-05-29T02:50:52.442Z,11.43
2019-05-29T02:51:52.397Z,11.28
2019-05-29T02:52:52.390Z,11.34
2019-05-29T02:53:52.370Z,11.44
2019-05-29T02:54:52.364Z,11.32
2019-05-29T02:55:52.353Z,11.44
2019-05-29T02:56:52.386Z,11.46
2019-05-29T02:57:52.467Z,11.46
2019-05-29T02:58:52.314Z,11.35
2019-05-29T02:59:52.303Z,11.31
2019-05-29T03:00:52.295Z,11.32
2019-05-29T03:01:52.287Z,11.28
2019-05-29T03:02:52.272Z,11.31
2019-05-29T03:03:52.352Z,11.29
2019-05-29T03:04:52.252Z,11.36
2019-05-29T03:05:52.244Z,11.25
2019-05-29T03:06:52.243Z,11.39
2019-05-29T03:07:52.219Z,11.41
2019-05-29T03:08:52.207Z,11.25
2019-05-29T03:09:52.193Z,11.44
2019-05-29T03:10:52.191Z,11.35
2019-05-29T03:11:52.262Z,11.36
2019-05-29T03:12:52.169Z,11.44
2019-05-29T03:13:52.154Z,11.43
2019-05-29T03:14:52.137Z,11.36
2019-05-29T03:16:08.523Z,11.47
2019-05-29T03:16:53.207Z,11.35
2019-05-29T03:17:52.672Z,11.43
2019-05-29T03:18:52.098Z,11.29
2019-05-29T03:19:52.085Z,11.34
2019-05-29T03:20:52.083Z,11.35
2019-05-29T03:21:52.180Z,11.44
2019-05-29T03:22:52.052Z,11.31
2019-05-29T03:23:52.133Z,11.39
2019-05-29T03:24:52.029Z,11.34
2019-05-29T03:25:52.020Z,11.34
2019-05-29T03:26:52.003Z,11.29
2019-05-29T03:27:51.997Z,11.20
2019-05-29T03:28:52.095Z,11.25
2019-05-29T03:29:52.015Z,11.11
2019-05-29T03:30:52.005Z,10.95
2019-05-29T03:31:51.986Z,11.09
2019-05-29T03:32:51.949Z,10.99
2019-05-29T03:33:51.929Z,11.09
2019-05-29T03:34:51.921Z,11.07
2019-05-29T03:35:51.946Z,11.02
2019-05-29T03:36:51.904Z,10.95
2019-05-29T03:37:51.886Z,11.07
2019-05-29T03:38:51.874Z,11.03
2019-05-29T03:39:51.953Z,11.14
2019-05-29T03:40:51.853Z,11.11
2019-05-29T03:41:51.837Z,11.16
2019-05-29T03:42:51.832Z,11.25
2019-05-29T03:43:51.818Z,11.34
2019-05-29T03:44:51.879Z,11.19
2019-05-29T03:45:51.798Z,11.20
2019-05-29T03:46:51.802Z,11.19
2019-05-29T03:47:51.779Z,11.19
2019-05-29T03:48:51.761Z,11.29
2019-05-29T03:49:51.837Z,11.27
2019-05-29T03:50:51.740Z,11.28
2019-05-29T03:51:51.724Z,11.27
2019-05-29T03:52:51.722Z,11.21
2019-05-29T03:53:51.719Z,11.21
2019-05-29T03:54:51.699Z,11.29
2019-05-29T03:55:51.796Z,11.25
2019-05-29T03:56:51.677Z,11.24
2019-05-29T03:57:51.660Z,11.34
2019-05-29T03:58:51.651Z,11.36
2019-05-29T03:59:51.646Z,11.32
2019-05-29T04:00:51.673Z,11.32
2019-05-29T04:01:58.766Z,11.36
2019-05-29T04:02:51.611Z,11.41
2019-05-29T04:03:51.609Z,11.21
2019-05-29T04:04:51.589Z,11.32
2019-05-29T04:05:51.572Z,11.34
2019-05-29T04:06:51.566Z,11.34
2019-05-29T04:07:51.550Z,11.35
2019-05-29T04:08:51.650Z,11.41
2019-05-29T04:09:51.525Z,11.39
2019-05-29T04:10:51.515Z,11.29
2019-05-29T04:11:51.509Z,11.21
2019-05-29T04:12:51.499Z,11.31
2019-05-29T04:13:51.487Z,11.16
2019-05-29T04:14:51.497Z,11.10
2019-05-29T04:15:51.529Z,11.06
2019-05-29T04:16:59.715Z,11.21
2019-05-29T04:17:52.435Z,11.19
2019-05-29T04:18:51.442Z,11.13
2019-05-29T04:19:51.416Z,11.11
2019-05-29T04:20:51.410Z,11.10
2019-05-29T04:21:51.487Z,11.02
2019-05-29T04:22:51.380Z,11.16
2019-05-29T04:23:51.370Z,11.10
2019-05-29T04:24:51.400Z,11.14
2019-05-29T04:25:51.355Z,11.09
2019-05-29T04:26:51.447Z,11.09
2019-05-29T04:27:51.333Z,11.02
2019-05-29T04:28:51.323Z,11.02
2019-05-29T04:29:51.304Z,10.92
2019-05-29T04:30:51.298Z,10.96
2019-05-29T04:31:51.345Z,10.94
2019-05-29T04:32:51.285Z,10.96
2019-05-29T04:33:51.266Z,10.88
2019-05-29T04:34:51.273Z,10.96
2019-05-29T04:35:51.249Z,10.99
2019-05-29T04:36:51.343Z,10.96
2019-05-29T04:37:51.226Z,11.09
2019-05-29T04:38:51.209Z,10.96
2019-05-29T04:39:51.195Z,11.11
2019-05-29T04:40:51.189Z,11.09
2019-05-29T04:41:51.177Z,11.24
2019-05-29T04:42:51.234Z,11.16
2019-05-29T04:43:51.183Z,11.28
2019-05-29T04:44:51.143Z,11.35
2019-05-29T04:45:51.129Z,11.25
2019-05-29T04:47:07.081Z,11.31
2019-05-29T04:47:52.115Z,11.32
2019-05-29T04:48:51.144Z,11.34
2019-05-29T04:49:51.090Z,11.34
2019-05-29T04:50:51.086Z,11.44
2019-05-29T04:51:51.060Z,11.38
2019-05-29T04:52:51.122Z,11.47
2019-05-29T04:53:51.045Z,11.38
2019-05-29T04:54:51.123Z,11.62
2019-05-29T04:55:51.014Z,11.47
2019-05-29T04:56:51.036Z,11.59
2019-05-29T04:57:51.126Z,11.64
2019-05-29T04:58:51.007Z,11.65
2019-05-29T04:59:50.971Z,11.70
2019-05-29T05:00:59.201Z,11.59
2019-05-29T05:01:51.948Z,11.56
2019-05-29T05:02:50.944Z,11.75
2019-05-29T05:03:51.049Z,11.78
2019-05-29T05:04:50.986Z,11.77
2019-05-29T05:05:50.961Z,11.80
2019-05-29T05:06:50.895Z,11.77
2019-05-29T05:07:50.880Z,11.65
2019-05-29T05:08:50.989Z,11.71
2019-05-29T05:09:50.862Z,11.72
2019-05-29T05:10:50.847Z,11.78
2019-05-29T05:11:50.835Z,11.68
2019-05-29T05:12:50.839Z,11.68
2019-05-29T05:13:50.818Z,11.65
2019-05-29T05:14:50.877Z,11.71
2019-05-29T05:15:50.864Z,11.75
2019-05-29T05:16:50.789Z,11.71
2019-05-29T05:17:50.775Z,11.72
2019-05-29T05:18:50.761Z,11.68
2019-05-29T05:19:50.754Z,11.77
2019-05-29T05:20:50.896Z,11.71
2019-05-29T05:21:50.727Z,11.80
2019-05-29T05:22:50.714Z,11.87
2019-05-29T05:23:50.710Z,12.02
2019-05-29T05:24:50.695Z,12.13
2019-05-29T05:25:50.794Z,12.20
2019-05-29T05:26:50.684Z,12.21
2019-05-29T05:27:50.656Z,12.27
2019-05-29T05:28:50.687Z,12.38
2019-05-29T05:29:50.635Z,12.48
2019-05-29T05:30:50.627Z,12.56
2019-05-29T05:31:50.732Z,12.63
2019-05-29T05:32:50.609Z,12.67
2019-05-29T05:33:50.595Z,12.67
2019-05-29T05:34:50.580Z,12.75
2019-05-29T05:35:50.569Z,12.79
2019-05-29T05:36:50.648Z,12.84
2019-05-29T05:37:50.552Z,12.82
2019-05-29T05:38:50.625Z,12.92
2019-05-29T05:39:50.528Z,12.96
2019-05-29T05:40:50.519Z,12.96
2019-05-29T05:41:50.570Z,12.93
2019-05-29T05:42:50.491Z,12.82
2019-05-29T05:43:50.478Z,12.74
2019-05-29T05:44:50.474Z,12.75
2019-05-29T05:45:50.547Z,12.67
2019-05-29T05:46:50.537Z,12.84
2019-05-29T05:47:57.283Z,12.85
2019-05-29T05:48:51.424Z,12.99
2019-05-29T05:49:50.417Z,12.92
2019-05-29T05:50:51.315Z,12.82
2019-05-29T05:51:50.408Z,12.78
2019-05-29T05:52:50.446Z,12.95
2019-05-29T05:53:50.377Z,12.96
2019-05-29T05:54:50.361Z,12.96
2019-05-29T05:55:50.350Z,13.03
2019-05-29T05:56:53.456Z,13.14
2019-05-29T05:57:50.414Z,13.18
2019-05-29T05:58:50.319Z,13.27
2019-05-29T05:59:50.303Z,13.44
2019-05-29T06:00:50.294Z,13.41
2019-05-29T06:01:50.395Z,13.49
2019-05-29T06:02:52.263Z,13.51
2019-05-29T06:03:50.285Z,13.55
2019-05-29T06:04:50.253Z,13.62
2019-05-29T06:05:50.245Z,13.56
2019-05-29T06:06:50.221Z,13.49
2019-05-29T06:07:50.210Z,13.41
2019-05-29T06:08:50.207Z,13.43
2019-05-29T06:09:50.214Z,13.29
2019-05-29T06:10:51.269Z,13.29
2019-05-29T06:11:50.173Z,13.33
2019-05-29T06:12:50.171Z,13.43
2019-05-29T06:13:50.163Z,13.40
2019-05-29T06:14:50.225Z,13.51
2019-05-29T06:15:50.123Z,13.89
2019-05-29T06:16:50.115Z,13.98
2019-05-29T06:18:10.124Z,14.14
2019-05-29T06:18:51.114Z,14.31
2019-05-29T06:19:50.268Z,14.47
2019-05-29T06:20:50.407Z,14.60
2019-05-29T06:21:50.173Z,14.87
2019-05-29T06:22:50.049Z,14.93
2019-05-29T06:23:50.163Z,15.11
2019-05-29T06:24:50.260Z,15.19
2019-05-29T06:25:50.016Z,15.20
2019-05-29T06:26:50.029Z,15.41
2019-05-29T06:27:49.990Z,15.42
2019-05-29T06:28:49.983Z,15.46
2019-05-29T06:29:49.972Z,15.56
2019-05-29T06:30:49.999Z,15.76
2019-05-29T06:31:50.041Z,15.92
2019-05-29T06:32:49.941Z,16.04
2019-05-29T06:33:49.931Z,16.27
2019-05-29T06:34:49.921Z,16.44
2019-05-29T06:35:49.983Z,16.56
2019-05-29T06:36:54.899Z,16.60
2019-05-29T06:37:49.876Z,16.60
2019-05-29T06:38:49.873Z,16.73
2019-05-29T06:39:49.863Z,17.00
2019-05-29T06:40:49.845Z,17.08
2019-05-29T06:41:49.860Z,17.28
2019-05-29T06:42:49.831Z,17.35
2019-05-29T06:43:49.817Z,17.28
2019-05-29T06:44:50.174Z,17.25
2019-05-29T06:45:49.817Z,17.06
2019-05-29T06:46:49.788Z,16.86
2019-05-29T06:47:49.799Z,17.00
2019-05-29T06:48:59.322Z,17.11
2019-05-29T06:49:50.745Z,17.13
2019-05-29T06:50:49.741Z,17.18
2019-05-29T06:51:49.727Z,17.22
2019-05-29T06:52:50.025Z,17.07
2019-05-29T06:53:49.703Z,17.07
2019-05-29T06:54:51.354Z,17.04
2019-05-29T06:55:54.018Z,16.81
2019-05-29T06:56:50.666Z,16.99
2019-05-29T06:57:49.678Z,17.04
2019-05-29T06:58:49.665Z,17.20
2019-05-29T06:59:49.636Z,17.33
2019-05-29T07:00:49.716Z,17.40
2019-05-29T07:01:49.722Z,17.44
2019-05-29T07:02:49.602Z,17.47
2019-05-29T07:03:49.608Z,17.43
2019-05-29T07:04:49.869Z,17.29
2019-05-29T07:05:52.337Z,17.15
2019-05-29T07:06:49.561Z,17.08
2019-05-29T07:07:49.654Z,17.33
2019-05-29T07:08:50.322Z,17.53
2019-05-29T07:09:49.522Z,17.76
2019-05-29T07:10:49.529Z,18.00
2019-05-29T07:11:49.507Z,18.15
2019-05-29T07:12:49.491Z,18.06
2019-05-29T07:13:50.580Z,18.09
2019-05-29T07:14:49.537Z,18.22
2019-05-29T07:15:49.476Z,18.06
2019-05-29T07:16:55.597Z,18.12
2019-05-29T07:17:50.435Z,18.33
2019-05-29T07:19:24.235Z,18.46
2019-05-29T07:20:02.337Z,18.47
2019-05-29T07:20:50.404Z,18.62
2019-05-29T07:21:49.396Z,18.62
2019-05-29T07:22:49.393Z,18.77
2019-05-29T07:23:49.377Z,18.87
2019-05-29T07:24:49.450Z,18.90
2019-05-29T07:25:49.351Z,18.99
2019-05-29T07:26:49.340Z,19.21
2019-05-29T07:27:49.330Z,18.90
2019-05-29T07:29:07.277Z,18.54
2019-05-29T07:29:50.392Z,18.17
2019-05-29T07:30:59.675Z,18.09
2019-05-29T07:31:50.368Z,18.03
2019-05-29T07:32:56.946Z,17.82
2019-05-29T07:33:50.260Z,17.46
2019-05-29T07:35:02.357Z,17.38
2019-05-29T07:35:50.324Z,17.03
2019-05-29T07:36:49.228Z,16.75
2019-05-29T07:37:49.231Z,16.70
2019-05-29T07:39:00.464Z,16.74
2019-05-29T07:39:50.194Z,16.65
2019-05-29T07:40:50.157Z,16.71
2019-05-29T07:41:49.259Z,17.08
2019-05-29T07:42:55.164Z,17.40
2019-05-29T07:43:50.222Z,17.15
2019-05-29T07:44:49.142Z,16.88
2019-05-29T07:45:49.132Z,17.08
2019-05-29T07:46:49.237Z,17.50
2019-05-29T07:47:49.111Z,17.78
2019-05-29T07:48:50.375Z,18.19
2019-05-29T07:49:50.334Z,18.37
2019-05-29T07:50:49.075Z,18.65
2019-05-29T07:51:49.189Z,18.90
2019-05-29T07:52:49.382Z,19.13
2019-05-29T07:53:49.073Z,19.40
2019-05-29T07:54:49.958Z,19.15
2019-05-29T07:55:49.163Z,19.29
2019-05-29T07:56:49.104Z,19.61
2019-05-29T07:57:49.051Z,19.02
2019-05-29T07:59:00.710Z,18.70
2019-05-29T07:59:49.971Z,18.47
2019-05-29T08:01:09.624Z,18.10
2019-05-29T08:01:50.048Z,17.79
2019-05-29T08:02:49.513Z,17.66
2019-05-29T08:03:49.714Z,17.51
2019-05-29T08:04:49.792Z,17.85
2019-05-29T08:05:51.558Z,17.82
2019-05-29T08:06:54.187Z,17.44
2019-05-29T08:07:49.976Z,17.30
2019-05-29T08:08:49.542Z,17.11
2019-05-29T08:09:49.828Z,17.64
2019-05-29T08:10:49.740Z,18.21
2019-05-29T08:11:50.132Z,18.54
2019-05-29T08:12:54.337Z,18.77
2019-05-29T08:13:50.085Z,19.13
2019-05-29T08:14:50.164Z,19.40
2019-05-29T08:15:57.587Z,19.39
2019-05-29T08:16:50.124Z,19.79
2019-05-29T08:17:50.162Z,20.18
2019-05-29T08:18:52.022Z,20.58
2019-05-29T08:20:05.387Z,20.84
2019-05-29T08:20:50.336Z,20.95
2019-05-29T08:21:48.737Z,20.95
2019-05-29T08:22:48.813Z,20.87
2019-05-29T08:23:48.713Z,21.09
2019-05-29T08:24:49.454Z,21.17
2019-05-29T08:25:49.607Z,21.46
2019-05-29T08:26:48.971Z,21.36
2019-05-29T08:27:48.984Z,21.56
2019-05-29T08:28:48.913Z,21.69
2019-05-29T08:29:48.880Z,21.79
2019-05-29T08:30:54.361Z,22.06
2019-05-29T08:31:50.915Z,22.13
2019-05-29T08:32:49.253Z,22.04
2019-05-29T08:33:48.999Z,21.75
2019-05-29T08:34:49.088Z,21.06
2019-05-29T08:35:57.607Z,20.74
2019-05-29T08:37:05.466Z,20.42
2019-05-29T08:37:49.563Z,20.38
2019-05-29T08:38:49.306Z,20.28
2019-05-29T08:39:49.558Z,20.24
2019-05-29T08:40:49.547Z,19.91
2019-05-29T08:42:19.291Z,19.76
2019-05-29T08:42:49.579Z,19.47
2019-05-29T08:43:48.519Z,19.01
2019-05-29T08:44:50.076Z,18.87
2019-05-29T08:45:49.636Z,19.43
2019-05-29T08:47:06.355Z,19.90
2019-05-29T08:47:49.774Z,19.76
2019-05-29T08:48:48.455Z,19.47
2019-05-29T08:49:52.511Z,19.21
2019-05-29T08:50:49.973Z,19.43
2019-05-29T08:51:48.408Z,19.87
2019-05-29T08:52:48.405Z,20.39
2019-05-29T08:53:48.826Z,20.58
2019-05-29T08:54:48.383Z,21.05
2019-05-29T08:55:49.027Z,21.39
2019-05-29T08:56:48.438Z,21.26
2019-05-29T08:57:48.519Z,20.90
2019-05-29T08:58:48.452Z,20.76
2019-05-29T08:59:48.505Z,20.81
2019-05-29T09:00:51.890Z,20.23
2019-05-29T09:01:52.327Z,20.02
2019-05-29T09:02:49.302Z,20.05
2019-05-29T09:03:48.909Z,20.27
2019-05-29T09:04:49.813Z,20.65
2019-05-29T09:06:04.933Z,20.08
2019-05-29T09:06:49.306Z,20.41
2019-05-29T09:07:49.821Z,20.89
2019-05-29T09:08:49.935Z,20.72
2019-05-29T09:09:49.072Z,20.56
2019-05-29T09:10:49.480Z,20.39
2019-05-29T09:11:49.917Z,20.65
2019-05-29T09:12:56.691Z,21.14
2019-05-29T09:13:49.180Z,21.29
2019-05-29T09:14:48.207Z,21.71
2019-05-29T09:15:48.246Z,22.13
2019-05-29T09:16:48.244Z,22.09
2019-05-29T09:17:48.133Z,21.66
2019-05-29T09:18:48.124Z,20.91
2019-05-29T09:19:48.796Z,20.46
2019-05-29T09:21:01.886Z,20.13
2019-05-29T09:21:49.182Z,19.88
2019-05-29T09:22:48.085Z,20.28
2019-05-29T09:23:48.076Z,20.06
2019-05-29T09:24:48.067Z,19.84
2019-05-29T09:25:48.056Z,20.71
2019-05-29T09:26:48.103Z,21.51
2019-05-29T09:27:48.147Z,22.25
2019-05-29T09:28:48.034Z,22.47
2019-05-29T09:29:48.009Z,22.43
2019-05-29T09:30:48.166Z,22.82
2019-05-29T09:31:47.995Z,22.37
2019-05-29T09:32:50.879Z,22.35
2019-05-29T09:33:48.063Z,23.15
2019-05-29T09:34:47.957Z,23.40
2019-05-29T09:35:47.954Z,22.74
2019-05-29T09:36:47.982Z,22.16
2019-05-29T09:37:47.926Z,21.76
2019-05-29T09:38:48.209Z,21.23
2019-05-29T09:39:47.921Z,21.94
2019-05-29T09:40:47.899Z,21.79
2019-05-29T09:41:47.885Z,21.57
2019-05-29T09:42:47.889Z,21.24
2019-05-29T09:43:58.284Z,21.69
2019-05-29T09:44:48.861Z,21.14
2019-05-29T09:45:47.846Z,21.09
2019-05-29T09:46:47.830Z,21.85
2019-05-29T09:47:47.821Z,22.75
2019-05-29T09:48:50.064Z,23.52
2019-05-29T09:49:47.837Z,24.19
2019-05-29T09:50:50.497Z,24.54
2019-05-29T09:51:47.785Z,25.16
2019-05-29T09:52:47.777Z,25.43
2019-05-29T09:53:47.963Z,25.59
2019-05-29T09:54:47.834Z,25.82
2019-05-29T09:55:47.783Z,25.67
2019-05-29T09:56:47.735Z,24.50
2019-05-29T09:57:47.724Z,23.53
2019-05-29T09:58:47.710Z,22.71
2019-05-29T09:59:47.791Z,21.94
2019-05-29T10:00:47.707Z,21.17
2019-05-29T10:47:47.418Z,23.76
2019-05-29T10:48:26.107Z,23.38
2019-05-29T10:49:26.097Z,22.93
2019-05-29T10:50:26.105Z,22.67
2019-05-29T10:51:26.067Z,22.59
2019-05-29T10:52:26.042Z,22.25
2019-05-29T10:53:26.063Z,22.04
2019-05-29T10:54:26.038Z,21.92
2019-05-29T10:55:26.017Z,21.97
2019-05-29T10:56:26.006Z,22.20
2019-05-29T10:57:25.998Z,22.27
2019-05-29T10:58:25.989Z,22.25
2019-05-29T10:59:25.983Z,22.28
2019-05-29T11:00:25.963Z,22.38
2019-05-29T11:01:25.956Z,22.28
2019-05-29T11:02:25.945Z,22.01
2019-05-29T11:03:25.933Z,22.12
2019-05-29T11:04:25.998Z,22.14
2019-05-29T11:05:25.913Z,22.02
2019-05-29T11:06:25.904Z,21.08
2019-05-29T11:07:25.895Z,20.64
2019-05-29T11:08:25.888Z,20.74
2019-05-29T11:09:25.879Z,20.79
2019-05-29T11:10:25.878Z,21.05
2019-05-29T11:11:25.872Z,20.98
2019-05-29T11:12:25.841Z,20.72
2019-05-29T11:13:25.833Z,20.68
2019-05-29T11:14:25.819Z,20.74
2019-05-29T11:15:25.816Z,20.34
2019-05-29T11:16:25.814Z,20.10
2019-05-29T11:17:25.790Z,20.08
2019-05-29T11:18:25.811Z,19.94
2019-05-29T11:19:26.219Z,20.06
2019-05-29T11:20:25.762Z,20.42
2019-05-29T11:21:25.798Z,21.01
2019-05-29T11:22:26.761Z,21.30
2019-05-29T11:23:25.728Z,21.61
2019-05-29T11:24:25.720Z,21.95
2019-05-29T11:25:27.695Z,22.20
2019-05-29T11:26:25.698Z,22.43
2019-05-29T11:27:26.255Z,22.77
2019-05-29T11:28:25.713Z,22.82
2019-05-29T11:29:25.667Z,22.68
2019-05-29T11:30:25.654Z,22.22
2019-05-29T11:31:25.637Z,22.49
2019-05-29T11:32:25.630Z,22.80
2019-05-29T11:33:25.627Z,23.05
2019-05-29T11:34:25.649Z,23.20
2019-05-29T11:35:25.602Z,23.26
2019-05-29T11:36:25.585Z,22.84
2019-05-29T11:37:25.577Z,22.34
2019-05-29T11:38:25.568Z,22.34
2019-05-29T11:39:25.599Z,22.38
2019-05-29T11:40:25.573Z,22.50
2019-05-29T11:41:26.783Z,22.82
2019-05-29T11:42:27.874Z,22.96
2019-05-29T11:43:25.511Z,23.17
2019-05-29T11:44:25.507Z,23.38
2019-05-29T11:45:25.533Z,23.55
2019-05-29T11:46:25.554Z,23.46
2019-05-29T11:47:25.469Z,23.52
2019-05-29T11:48:25.456Z,23.35
2019-05-29T11:49:25.450Z,23.23
2019-05-29T11:50:25.454Z,23.08
2019-05-29T11:51:25.434Z,22.94
2019-05-29T11:52:41.788Z,23.01
2019-05-29T11:53:26.404Z,22.64
2019-05-29T11:54:25.392Z,22.77
2019-05-29T11:55:25.403Z,22.71
2019-05-29T11:56:25.393Z,22.14
2019-05-29T11:57:25.365Z,21.63
2019-05-29T11:58:30.962Z,21.44
2019-05-29T11:59:26.350Z,21.53
2019-05-29T12:00:25.335Z,22.12
2019-05-29T12:01:25.329Z,22.59
2019-05-29T12:02:25.313Z,22.75
2019-05-29T12:03:25.296Z,22.94
2019-05-29T12:04:26.802Z,23.08
2019-05-29T12:05:25.281Z,23.20
2019-05-29T12:06:25.276Z,23.34
2019-05-29T12:07:25.261Z,23.49
2019-05-29T12:08:25.239Z,23.71
2019-05-29T12:09:32.702Z,23.77
2019-05-29T12:10:26.221Z,23.70
2019-05-29T12:11:25.211Z,23.72
2019-05-29T12:12:25.221Z,23.77
2019-05-29T12:13:25.202Z,23.95
2019-05-29T12:14:25.227Z,24.05
2019-05-29T12:15:25.171Z,24.07
2019-05-29T12:16:25.163Z,24.34
2019-05-29T12:17:25.168Z,24.27
2019-05-29T12:18:25.140Z,24.05
2019-05-29T12:19:25.129Z,23.49
2019-05-29T12:20:28.213Z,23.02
2019-05-29T12:21:25.105Z,23.09
2019-05-29T12:22:25.101Z,22.52
2019-05-29T12:23:26.853Z,22.20
2019-05-29T12:24:25.072Z,22.50
2019-05-29T12:25:25.090Z,22.94
2019-05-29T12:26:25.049Z,22.53
2019-05-29T12:27:25.044Z,22.54
2019-05-29T12:28:25.041Z,22.90
2019-05-29T12:29:25.038Z,23.11
2019-05-29T12:30:25.011Z,23.45
2019-05-29T12:31:25.009Z,23.46
2019-05-29T12:32:24.985Z,23.17
2019-05-29T12:33:24.987Z,23.38
2019-05-29T12:34:24.973Z,23.70
2019-05-29T12:35:24.955Z,23.65
2019-05-29T12:36:24.955Z,23.79
2019-05-29T12:37:24.941Z,24.13
2019-05-29T12:38:24.939Z,24.22
2019-05-29T12:39:24.917Z,24.26
2019-05-29T12:40:24.927Z,24.02
2019-05-29T12:41:24.895Z,23.95
2019-05-29T12:42:24.880Z,24.20
2019-05-29T12:43:27.842Z,24.39
2019-05-29T12:44:24.864Z,24.49
2019-05-29T12:45:24.853Z,24.63
2019-05-29T12:46:24.837Z,24.92
2019-05-29T12:47:24.826Z,25.05
2019-05-29T12:48:24.882Z,25.32
2019-05-29T12:49:24.832Z,25.42
2019-05-29T12:50:24.797Z,25.43
2019-05-29T12:51:24.784Z,25.28
2019-05-29T12:52:24.779Z,25.17
2019-05-29T12:53:30.398Z,24.94
2019-05-29T12:54:25.784Z,24.47
2019-05-29T12:55:24.751Z,23.85
2019-05-29T12:56:24.751Z,23.98
2019-05-29T12:57:24.728Z,24.10
2019-05-29T12:58:24.713Z,23.86
2019-05-29T12:59:24.715Z,23.60
2019-05-29T13:00:24.701Z,23.27
2019-05-29T13:01:24.692Z,23.35
2019-05-29T13:02:24.672Z,23.64
2019-05-29T13:03:24.681Z,23.90
2019-05-29T13:04:24.657Z,23.98
2019-05-29T13:05:24.640Z,24.07
2019-05-29T13:06:24.627Z,24.08
2019-05-29T13:07:24.667Z,24.12
2019-05-29T13:08:24.610Z,24.27
2019-05-29T13:09:24.610Z,24.12
2019-05-29T13:10:30.764Z,24.16
2019-05-29T13:11:25.581Z,24.01
2019-05-29T13:12:24.568Z,23.87
2019-05-29T13:13:24.555Z,24.02
2019-05-29T13:14:24.550Z,23.80
2019-05-29T13:15:24.532Z,23.05
2019-05-29T13:16:24.519Z,22.39
2019-05-29T13:17:24.515Z,21.64
2019-05-29T13:18:24.501Z,21.16
2019-05-29T13:19:24.523Z,20.83
2019-05-29T13:20:24.477Z,21.16
2019-05-29T13:21:24.472Z,21.97
2019-05-29T13:22:24.463Z,22.29
2019-05-29T13:23:24.455Z,22.68
2019-05-29T13:24:24.440Z,22.78
2019-05-29T13:25:24.468Z,22.90
2019-05-29T13:26:24.418Z,23.27
2019-05-29T13:27:24.408Z,23.47
2019-05-29T13:28:24.393Z,23.60
2019-05-29T13:29:24.421Z,23.15
2019-05-29T13:30:24.386Z,23.31
2019-05-29T13:31:24.379Z,23.04
2019-05-29T13:32:24.356Z,23.12
2019-05-29T13:33:24.349Z,22.78
2019-05-29T13:34:24.339Z,22.50
2019-05-29T13:35:24.333Z,22.01
2019-05-29T13:36:24.313Z,21.42
2019-05-29T13:37:24.296Z,20.99
2019-05-29T13:38:24.287Z,20.89